Firm Cases, Texas
Current Conditions -  °F | °C
As of 8:28 AM on Thursday 18 Dec 2014 (Local Time) from KSKF Reporting Station
Overcast Overcast  
Wind Chill: 57°   Ceiling: 800
Heat Index: 57°   Visibility: 10mi
Dew Point: 57°   Wind: 8mph
Humidity: 100%   Direction: 30°NNE
Pressure: 30.08"   Gusts: NA
Location:  29.4209°N, 98.5275°W
Report Text: KSKF 181428Z AUTO 03007KT 10SM OVC008 14/14 A3008 RMK AO2 CIG 006V008 $
Loading
Personal Weather Stations






























Interactive Weather Map New forecast layout! Learn more

10-Day Weather Forecast

Advertisements
Track Severe Weather on mobile